sensor_id;sensor_type;location;lat;lon;timestamp;P1;durP1;ratioP1;P2;durP2;ratioP2
9056;SDS011;4563;54.756;9.400;2022-12-11T00:00:44;12.73;;;7.83;;
9056;SDS011;4563;54.756;9.400;2022-12-11T00:03:11;11.23;;;8.20;;
9056;SDS011;4563;54.756;9.400;2022-12-11T00:05:41;11.50;;;7.60;;
9056;SDS011;4563;54.756;9.400;2022-12-11T00:08:08;11.63;;;7.83;;
9056;SDS011;4563;54.756;9.400;2022-12-11T00:10:35;10.63;;;7.37;;
9056;SDS011;4563;54.756;9.400;2022-12-11T00:13:02;12.80;;;7.50;;
9056;SDS011;4563;54.756;9.400;2022-12-11T00:15:30;12.17;;;7.13;;
9056;SDS011;4563;54.756;9.400;2022-12-11T00:17:57;11.53;;;6.80;;
9056;SDS011;4563;54.756;9.400;2022-12-11T00:20:24;9.70;;;6.93;;
9056;SDS011;4563;54.756;9.400;2022-12-11T00:22:51;14.67;;;8.10;;
9056;SDS011;4563;54.756;9.400;2022-12-11T00:25:18;13.40;;;8.10;;
9056;SDS011;4563;54.756;9.400;2022-12-11T00:27:45;14.27;;;8.33;;
9056;SDS011;4563;54.756;9.400;2022-12-11T00:30:12;11.87;;;8.07;;
9056;SDS011;4563;54.756;9.400;2022-12-11T00:32:40;16.00;;;9.07;;
9056;SDS011;4563;54.756;9.400;2022-12-11T00:35:08;12.40;;;7.50;;
9056;SDS011;4563;54.756;9.400;2022-12-11T00:37:35;10.93;;;7.47;;
9056;SDS011;4563;54.756;9.400;2022-12-11T00:40:02;13.30;;;8.50;;
9056;SDS011;4563;54.756;9.400;2022-12-11T00:42:29;12.40;;;7.03;;
9056;SDS011;4563;54.756;9.400;2022-12-11T00:44:56;11.63;;;7.33;;
9056;SDS011;4563;54.756;9.400;2022-12-11T00:47:23;12.50;;;7.67;;
9056;SDS011;4563;54.756;9.400;2022-12-11T00:49:51;12.17;;;7.60;;
9056;SDS011;4563;54.756;9.400;2022-12-11T00:52:18;12.13;;;6.80;;
9056;SDS011;4563;54.756;9.400;2022-12-11T00:54:45;12.40;;;7.63;;
9056;SDS011;4563;54.756;9.400;2022-12-11T00:57:11;11.63;;;6.93;;
9056;SDS011;4563;54.756;9.400;2022-12-11T00:59:38;10.00;;;6.80;;
9056;SDS011;4563;54.756;9.400;2022-12-11T01:02:05;10.87;;;6.97;;
9056;SDS011;4563;54.756;9.400;2022-12-11T01:04:33;12.60;;;7.73;;
9056;SDS011;4563;54.756;9.400;2022-12-11T01:07:02;14.70;;;8.07;;
9056;SDS011;4563;54.756;9.400;2022-12-11T01:09:29;11.67;;;7.03;;
9056;SDS011;4563;54.756;9.400;2022-12-11T01:12:13;12.77;;;7.37;;
9056;SDS011;4563;54.756;9.400;2022-12-11T01:14:40;13.67;;;7.77;;
9056;SDS011;4563;54.756;9.400;2022-12-11T01:17:07;9.83;;;6.70;;
9056;SDS011;4563;54.756;9.400;2022-12-11T01:19:34;11.30;;;6.97;;
9056;SDS011;4563;54.756;9.400;2022-12-11T01:22:02;10.50;;;6.83;;
9056;SDS011;4563;54.756;9.400;2022-12-11T01:24:29;12.73;;;8.13;;
9056;SDS011;4563;54.756;9.400;2022-12-11T01:26:56;12.63;;;7.70;;
9056;SDS011;4563;54.756;9.400;2022-12-11T01:29:23;11.97;;;7.13;;
9056;SDS011;4563;54.756;9.400;2022-12-11T01:31:50;10.23;;;6.53;;
9056;SDS011;4563;54.756;9.400;2022-12-11T01:34:17;12.17;;;7.03;;
9056;SDS011;4563;54.756;9.400;2022-12-11T01:36:43;14.23;;;8.63;;
9056;SDS011;4563;54.756;9.400;2022-12-11T01:39:14;15.17;;;7.93;;
9056;SDS011;4563;54.756;9.400;2022-12-11T01:41:41;10.17;;;6.87;;
9056;SDS011;4563;54.756;9.400;2022-12-11T01:47:08;10.97;;;7.07;;
9056;SDS011;4563;54.756;9.400;2022-12-11T01:49:34;12.10;;;7.40;;
9056;SDS011;4563;54.756;9.400;2022-12-11T01:52:03;9.87;;;6.70;;
9056;SDS011;4563;54.756;9.400;2022-12-11T01:54:34;11.30;;;6.73;;
9056;SDS011;4563;54.756;9.400;2022-12-11T01:57:01;11.23;;;6.80;;
9056;SDS011;4563;54.756;9.400;2022-12-11T01:59:32;10.20;;;6.77;;
9056;SDS011;4563;54.756;9.400;2022-12-11T02:02:03;10.13;;;6.00;;
9056;SDS011;4563;54.756;9.400;2022-12-11T02:04:33;10.53;;;6.43;;
9056;SDS011;4563;54.756;9.400;2022-12-11T02:07:02;11.00;;;6.50;;
9056;SDS011;4563;54.756;9.400;2022-12-11T02:09:31;10.07;;;6.13;;
9056;SDS011;4563;54.756;9.400;2022-12-11T02:12:00;12.23;;;6.97;;
9056;SDS011;4563;54.756;9.400;2022-12-11T02:14:31;10.17;;;6.43;;
9056;SDS011;4563;54.756;9.400;2022-12-11T02:17:04;15.17;;;7.47;;
9056;SDS011;4563;54.756;9.400;2022-12-11T02:19:43;11.00;;;6.93;;
9056;SDS011;4563;54.756;9.400;2022-12-11T02:22:18;11.27;;;6.43;;
9056;SDS011;4563;54.756;9.400;2022-12-11T02:24:56;8.43;;;5.97;;
9056;SDS011;4563;54.756;9.400;2022-12-11T02:27:32;11.90;;;6.23;;
9056;SDS011;4563;54.756;9.400;2022-12-11T02:30:08;11.30;;;6.33;;
9056;SDS011;4563;54.756;9.400;2022-12-11T02:32:36;11.13;;;7.03;;
9056;SDS011;4563;54.756;9.400;2022-12-11T02:35:09;9.87;;;6.20;;
9056;SDS011;4563;54.756;9.400;2022-12-11T02:37:41;10.20;;;6.53;;
9056;SDS011;4563;54.756;9.400;2022-12-11T02:40:11;10.97;;;6.93;;
9056;SDS011;4563;54.756;9.400;2022-12-11T02:42:40;9.27;;;5.57;;
9056;SDS011;4563;54.756;9.400;2022-12-11T02:45:10;9.30;;;6.77;;
9056;SDS011;4563;54.756;9.400;2022-12-11T02:47:39;11.50;;;7.60;;
9056;SDS011;4563;54.756;9.400;2022-12-11T02:50:10;12.40;;;6.90;;
9056;SDS011;4563;54.756;9.400;2022-12-11T02:52:38;11.47;;;6.63;;
9056;SDS011;4563;54.756;9.400;2022-12-11T02:55:08;12.90;;;7.10;;
9056;SDS011;4563;54.756;9.400;2022-12-11T02:57:37;8.53;;;6.20;;
9056;SDS011;4563;54.756;9.400;2022-12-11T03:00:09;8.73;;;5.33;;
9056;SDS011;4563;54.756;9.400;2022-12-11T03:02:38;11.67;;;6.87;;
9056;SDS011;4563;54.756;9.400;2022-12-11T03:05:06;11.20;;;6.77;;
9056;SDS011;4563;54.756;9.400;2022-12-11T03:07:36;9.67;;;5.97;;
9056;SDS011;4563;54.756;9.400;2022-12-11T03:10:06;9.23;;;6.07;;
9056;SDS011;4563;54.756;9.400;2022-12-11T03:12:35;10.83;;;6.67;;
9056;SDS011;4563;54.756;9.400;2022-12-11T03:15:06;12.87;;;6.57;;
9056;SDS011;4563;54.756;9.400;2022-12-11T03:17:37;12.70;;;6.33;;
9056;SDS011;4563;54.756;9.400;2022-12-11T03:20:17;10.83;;;6.73;;
9056;SDS011;4563;54.756;9.400;2022-12-11T03:22:52;10.27;;;6.37;;
9056;SDS011;4563;54.756;9.400;2022-12-11T03:25:24;11.37;;;6.93;;
9056;SDS011;4563;54.756;9.400;2022-12-11T03:27:56;11.50;;;6.70;;
9056;SDS011;4563;54.756;9.400;2022-12-11T03:30:25;10.07;;;5.87;;
9056;SDS011;4563;54.756;9.400;2022-12-11T03:32:57;10.37;;;6.47;;
9056;SDS011;4563;54.756;9.400;2022-12-11T03:35:28;11.97;;;6.73;;
9056;SDS011;4563;54.756;9.400;2022-12-11T03:38:00;13.47;;;7.50;;
9056;SDS011;4563;54.756;9.400;2022-12-11T03:40:31;9.50;;;6.63;;
9056;SDS011;4563;54.756;9.400;2022-12-11T03:43:00;11.83;;;6.77;;
9056;SDS011;4563;54.756;9.400;2022-12-11T03:45:30;11.73;;;6.30;;
9056;SDS011;4563;54.756;9.400;2022-12-11T03:48:00;12.07;;;7.53;;
9056;SDS011;4563;54.756;9.400;2022-12-11T03:50:29;10.27;;;6.43;;
9056;SDS011;4563;54.756;9.400;2022-12-11T03:52:58;11.10;;;7.00;;
9056;SDS011;4563;54.756;9.400;2022-12-11T03:55:26;11.50;;;6.67;;
9056;SDS011;4563;54.756;9.400;2022-12-11T03:57:55;14.47;;;7.70;;
9056;SDS011;4563;54.756;9.400;2022-12-11T04:00:22;10.77;;;6.20;;
9056;SDS011;4563;54.756;9.400;2022-12-11T04:02:49;11.87;;;6.87;;
9056;SDS011;4563;54.756;9.400;2022-12-11T04:05:31;12.47;;;6.57;;
9056;SDS011;4563;54.756;9.400;2022-12-11T04:07:58;11.77;;;6.37;;
9056;SDS011;4563;54.756;9.400;2022-12-11T04:10:25;10.50;;;6.10;;
9056;SDS011;4563;54.756;9.400;2022-12-11T04:12:53;10.30;;;6.23;;
9056;SDS011;4563;54.756;9.400;2022-12-11T04:15:20;11.37;;;6.73;;
9056;SDS011;4563;54.756;9.400;2022-12-11T04:17:46;11.17;;;5.93;;
9056;SDS011;4563;54.756;9.400;2022-12-11T04:20:32;10.50;;;5.73;;
9056;SDS011;4563;54.756;9.400;2022-12-11T04:23:17;11.67;;;6.60;;
9056;SDS011;4563;54.756;9.400;2022-12-11T04:26:04;10.30;;;6.33;;
9056;SDS011;4563;54.756;9.400;2022-12-11T04:28:33;9.47;;;6.00;;
9056;SDS011;4563;54.756;9.400;2022-12-11T04:31:00;11.63;;;6.43;;
9056;SDS011;4563;54.756;9.400;2022-12-11T04:33:27;12.77;;;6.33;;
9056;SDS011;4563;54.756;9.400;2022-12-11T04:35:57;9.93;;;6.53;;
9056;SDS011;4563;54.756;9.400;2022-12-11T04:38:24;8.53;;;5.73;;
9056;SDS011;4563;54.756;9.400;2022-12-11T04:40:56;14.27;;;7.63;;
9056;SDS011;4563;54.756;9.400;2022-12-11T04:43:23;12.23;;;6.63;;
9056;SDS011;4563;54.756;9.400;2022-12-11T04:45:59;11.13;;;6.23;;
9056;SDS011;4563;54.756;9.400;2022-12-11T04:48:26;10.40;;;6.83;;
9056;SDS011;4563;54.756;9.400;2022-12-11T04:50:53;13.83;;;7.07;;
9056;SDS011;4563;54.756;9.400;2022-12-11T04:53:21;11.70;;;7.07;;
9056;SDS011;4563;54.756;9.400;2022-12-11T04:55:48;10.40;;;6.67;;
9056;SDS011;4563;54.756;9.400;2022-12-11T04:58:15;12.33;;;6.70;;
9056;SDS011;4563;54.756;9.400;2022-12-11T05:00:42;12.50;;;7.43;;
9056;SDS011;4563;54.756;9.400;2022-12-11T05:03:09;12.33;;;6.77;;
9056;SDS011;4563;54.756;9.400;2022-12-11T05:05:36;13.23;;;7.27;;
9056;SDS011;4563;54.756;9.400;2022-12-11T05:08:03;13.67;;;7.40;;
9056;SDS011;4563;54.756;9.400;2022-12-11T05:10:32;13.23;;;7.20;;
9056;SDS011;4563;54.756;9.400;2022-12-11T05:12:58;15.20;;;7.70;;
9056;SDS011;4563;54.756;9.400;2022-12-11T05:15:25;14.20;;;8.00;;
9056;SDS011;4563;54.756;9.400;2022-12-11T05:17:52;13.43;;;6.47;;
9056;SDS011;4563;54.756;9.400;2022-12-11T05:20:19;11.40;;;6.73;;
9056;SDS011;4563;54.756;9.400;2022-12-11T05:22:46;12.10;;;6.93;;
9056;SDS011;4563;54.756;9.400;2022-12-11T05:25:13;12.80;;;7.43;;
9056;SDS011;4563;54.756;9.400;2022-12-11T05:27:41;11.93;;;6.27;;
9056;SDS011;4563;54.756;9.400;2022-12-11T05:30:08;9.53;;;6.50;;
9056;SDS011;4563;54.756;9.400;2022-12-11T05:32:35;14.30;;;7.50;;
9056;SDS011;4563;54.756;9.400;2022-12-11T05:35:02;11.13;;;7.10;;
9056;SDS011;4563;54.756;9.400;2022-12-11T05:37:31;11.87;;;6.57;;
9056;SDS011;4563;54.756;9.400;2022-12-11T05:39:59;11.13;;;6.37;;
9056;SDS011;4563;54.756;9.400;2022-12-11T05:42:26;15.00;;;6.50;;
9056;SDS011;4563;54.756;9.400;2022-12-11T05:44:54;12.53;;;7.17;;
9056;SDS011;4563;54.756;9.400;2022-12-11T05:47:21;12.47;;;6.97;;
9056;SDS011;4563;54.756;9.400;2022-12-11T05:49:48;10.53;;;6.63;;
9056;SDS011;4563;54.756;9.400;2022-12-11T05:52:14;11.37;;;6.63;;
9056;SDS011;4563;54.756;9.400;2022-12-11T05:54:42;14.40;;;7.93;;
9056;SDS011;4563;54.756;9.400;2022-12-11T05:57:08;11.30;;;7.27;;
9056;SDS011;4563;54.756;9.400;2022-12-11T05:59:35;12.23;;;6.97;;
9056;SDS011;4563;54.756;9.400;2022-12-11T06:02:03;13.50;;;7.57;;
9056;SDS011;4563;54.756;9.400;2022-12-11T06:04:30;14.30;;;7.07;;
9056;SDS011;4563;54.756;9.400;2022-12-11T06:06:57;9.87;;;6.40;;
9056;SDS011;4563;54.756;9.400;2022-12-11T06:09:24;11.47;;;6.87;;
9056;SDS011;4563;54.756;9.400;2022-12-11T06:11:51;10.03;;;6.53;;
9056;SDS011;4563;54.756;9.400;2022-12-11T06:14:18;12.10;;;6.63;;
9056;SDS011;4563;54.756;9.400;2022-12-11T06:16:45;14.23;;;7.73;;
9056;SDS011;4563;54.756;9.400;2022-12-11T06:19:14;13.43;;;8.30;;
9056;SDS011;4563;54.756;9.400;2022-12-11T06:21:42;13.57;;;8.33;;
9056;SDS011;4563;54.756;9.400;2022-12-11T06:24:12;12.50;;;7.03;;
9056;SDS011;4563;54.756;9.400;2022-12-11T06:26:40;13.57;;;7.63;;
9056;SDS011;4563;54.756;9.400;2022-12-11T06:29:06;11.03;;;7.20;;
9056;SDS011;4563;54.756;9.400;2022-12-11T06:31:33;11.37;;;7.80;;
9056;SDS011;4563;54.756;9.400;2022-12-11T06:34:00;15.30;;;7.57;;
9056;SDS011;4563;54.756;9.400;2022-12-11T06:36:28;11.10;;;6.47;;
9056;SDS011;4563;54.756;9.400;2022-12-11T06:38:55;13.73;;;7.97;;
9056;SDS011;4563;54.756;9.400;2022-12-11T06:41:22;13.47;;;7.70;;
9056;SDS011;4563;54.756;9.400;2022-12-11T06:43:49;12.67;;;8.03;;
9056;SDS011;4563;54.756;9.400;2022-12-11T06:46:17;12.10;;;6.73;;
9056;SDS011;4563;54.756;9.400;2022-12-11T06:48:45;13.97;;;7.80;;
9056;SDS011;4563;54.756;9.400;2022-12-11T06:51:14;13.43;;;7.37;;
9056;SDS011;4563;54.756;9.400;2022-12-11T06:53:43;11.13;;;7.60;;
9056;SDS011;4563;54.756;9.400;2022-12-11T06:56:12;11.23;;;7.23;;
9056;SDS011;4563;54.756;9.400;2022-12-11T06:58:40;14.10;;;7.77;;
9056;SDS011;4563;54.756;9.400;2022-12-11T07:01:12;12.00;;;7.00;;
9056;SDS011;4563;54.756;9.400;2022-12-11T07:03:40;11.60;;;6.43;;
9056;SDS011;4563;54.756;9.400;2022-12-11T07:06:07;15.23;;;8.33;;
9056;SDS011;4563;54.756;9.400;2022-12-11T07:08:34;15.57;;;9.00;;
9056;SDS011;4563;54.756;9.400;2022-12-11T07:11:03;13.67;;;8.30;;
9056;SDS011;4563;54.756;9.400;2022-12-11T07:13:31;12.87;;;7.67;;
9056;SDS011;4563;54.756;9.400;2022-12-11T07:15:59;14.40;;;8.47;;
9056;SDS011;4563;54.756;9.400;2022-12-11T07:18:28;13.53;;;7.97;;
9056;SDS011;4563;54.756;9.400;2022-12-11T07:20:56;14.63;;;8.40;;
9056;SDS011;4563;54.756;9.400;2022-12-11T07:23:24;14.20;;;8.07;;
9056;SDS011;4563;54.756;9.400;2022-12-11T07:25:52;14.80;;;8.63;;
9056;SDS011;4563;54.756;9.400;2022-12-11T07:28:20;15.07;;;8.33;;
9056;SDS011;4563;54.756;9.400;2022-12-11T07:30:47;13.13;;;8.03;;
9056;SDS011;4563;54.756;9.400;2022-12-11T07:33:15;14.23;;;7.97;;
9056;SDS011;4563;54.756;9.400;2022-12-11T07:35:42;15.23;;;8.10;;
9056;SDS011;4563;54.756;9.400;2022-12-11T07:38:09;13.17;;;7.97;;
9056;SDS011;4563;54.756;9.400;2022-12-11T07:40:36;12.67;;;7.53;;
9056;SDS011;4563;54.756;9.400;2022-12-11T07:43:02;12.40;;;7.20;;
9056;SDS011;4563;54.756;9.400;2022-12-11T07:45:31;14.37;;;8.53;;
9056;SDS011;4563;54.756;9.400;2022-12-11T07:47:57;13.13;;;7.90;;
9056;SDS011;4563;54.756;9.400;2022-12-11T07:50:24;14.43;;;8.40;;
9056;SDS011;4563;54.756;9.400;2022-12-11T07:52:51;19.23;;;8.77;;
9056;SDS011;4563;54.756;9.400;2022-12-11T07:55:18;14.70;;;8.93;;
9056;SDS011;4563;54.756;9.400;2022-12-11T07:57:45;12.37;;;7.63;;
9056;SDS011;4563;54.756;9.400;2022-12-11T08:00:12;12.20;;;7.27;;
9056;SDS011;4563;54.756;9.400;2022-12-11T08:02:41;13.43;;;7.83;;
9056;SDS011;4563;54.756;9.400;2022-12-11T08:05:08;14.77;;;8.70;;
9056;SDS011;4563;54.756;9.400;2022-12-11T08:07:36;18.07;;;10.20;;
9056;SDS011;4563;54.756;9.400;2022-12-11T08:10:03;15.03;;;9.00;;
9056;SDS011;4563;54.756;9.400;2022-12-11T08:12:30;14.03;;;7.80;;
9056;SDS011;4563;54.756;9.400;2022-12-11T08:14:57;16.20;;;8.23;;
9056;SDS011;4563;54.756;9.400;2022-12-11T08:17:24;13.67;;;7.93;;
9056;SDS011;4563;54.756;9.400;2022-12-11T08:19:52;14.50;;;7.90;;
9056;SDS011;4563;54.756;9.400;2022-12-11T08:22:19;12.50;;;8.30;;
9056;SDS011;4563;54.756;9.400;2022-12-11T08:24:45;13.27;;;7.97;;
9056;SDS011;4563;54.756;9.400;2022-12-11T08:27:12;16.47;;;9.47;;
9056;SDS011;4563;54.756;9.400;2022-12-11T08:29:39;14.50;;;9.00;;
9056;SDS011;4563;54.756;9.400;2022-12-11T08:32:06;12.43;;;7.60;;
9056;SDS011;4563;54.756;9.400;2022-12-11T08:34:33;13.27;;;7.87;;
9056;SDS011;4563;54.756;9.400;2022-12-11T08:37:01;14.17;;;9.37;;
9056;SDS011;4563;54.756;9.400;2022-12-11T08:39:28;14.63;;;8.67;;
9056;SDS011;4563;54.756;9.400;2022-12-11T08:41:55;19.57;;;9.87;;
9056;SDS011;4563;54.756;9.400;2022-12-11T08:44:22;16.80;;;9.63;;
9056;SDS011;4563;54.756;9.400;2022-12-11T08:46:51;13.47;;;8.37;;
9056;SDS011;4563;54.756;9.400;2022-12-11T08:49:18;14.20;;;8.60;;
9056;SDS011;4563;54.756;9.400;2022-12-11T08:51:50;13.07;;;7.30;;
9056;SDS011;4563;54.756;9.400;2022-12-11T08:54:18;14.20;;;8.57;;
9056;SDS011;4563;54.756;9.400;2022-12-11T08:56:45;14.80;;;8.23;;
9056;SDS011;4563;54.756;9.400;2022-12-11T08:59:12;11.80;;;7.43;;
9056;SDS011;4563;54.756;9.400;2022-12-11T09:01:39;13.00;;;7.40;;
9056;SDS011;4563;54.756;9.400;2022-12-11T09:04:06;13.87;;;8.27;;
9056;SDS011;4563;54.756;9.400;2022-12-11T09:06:33;14.70;;;8.43;;
9056;SDS011;4563;54.756;9.400;2022-12-11T09:09:00;13.23;;;8.63;;
9056;SDS011;4563;54.756;9.400;2022-12-11T09:11:31;14.97;;;7.77;;
9056;SDS011;4563;54.756;9.400;2022-12-11T09:13:59;21.57;;;10.97;;
9056;SDS011;4563;54.756;9.400;2022-12-11T09:16:27;32.67;;;15.30;;
9056;SDS011;4563;54.756;9.400;2022-12-11T09:18:56;37.43;;;17.10;;
9056;SDS011;4563;54.756;9.400;2022-12-11T09:21:24;30.70;;;13.77;;
9056;SDS011;4563;54.756;9.400;2022-12-11T09:23:53;17.70;;;10.40;;
9056;SDS011;4563;54.756;9.400;2022-12-11T09:26:21;13.40;;;9.27;;
9056;SDS011;4563;54.756;9.400;2022-12-11T09:28:49;15.57;;;9.00;;
9056;SDS011;4563;54.756;9.400;2022-12-11T09:31:18;16.77;;;8.93;;
9056;SDS011;4563;54.756;9.400;2022-12-11T09:33:47;13.87;;;8.73;;
9056;SDS011;4563;54.756;9.400;2022-12-11T09:36:15;14.77;;;8.23;;
9056;SDS011;4563;54.756;9.400;2022-12-11T09:38:42;15.30;;;9.10;;
9056;SDS011;4563;54.756;9.400;2022-12-11T09:47:13;11.67;;;7.37;;
9056;SDS011;4563;54.756;9.400;2022-12-11T09:49:44;12.97;;;7.57;;
9056;SDS011;4563;54.756;9.400;2022-12-11T09:52:16;15.03;;;8.73;;
9056;SDS011;4563;54.756;9.400;2022-12-11T09:54:47;15.07;;;8.87;;
9056;SDS011;4563;54.756;9.400;2022-12-11T09:57:22;14.57;;;8.27;;
9056;SDS011;4563;54.756;9.400;2022-12-11T10:00:02;17.63;;;9.07;;
9056;SDS011;4563;54.756;9.400;2022-12-11T10:02:51;13.70;;;7.70;;
9056;SDS011;4563;54.756;9.400;2022-12-11T10:05:41;13.83;;;7.70;;
9056;SDS011;4563;54.756;9.400;2022-12-11T10:08:16;14.67;;;8.30;;
9056;SDS011;4563;54.756;9.400;2022-12-11T10:10:51;12.47;;;6.93;;
9056;SDS011;4563;54.756;9.400;2022-12-11T10:13:29;11.00;;;6.67;;
9056;SDS011;4563;54.756;9.400;2022-12-11T10:16:04;10.60;;;7.00;;
9056;SDS011;4563;54.756;9.400;2022-12-11T10:18:40;14.33;;;7.63;;
9056;SDS011;4563;54.756;9.400;2022-12-11T10:21:07;10.17;;;5.90;;
9056;SDS011;4563;54.756;9.400;2022-12-11T10:23:37;14.73;;;6.77;;
9056;SDS011;4563;54.756;9.400;2022-12-11T10:26:10;14.03;;;7.90;;
9056;SDS011;4563;54.756;9.400;2022-12-11T10:28:41;15.50;;;7.80;;
9056;SDS011;4563;54.756;9.400;2022-12-11T10:31:12;12.50;;;7.40;;
9056;SDS011;4563;54.756;9.400;2022-12-11T10:33:44;13.43;;;7.47;;
9056;SDS011;4563;54.756;9.400;2022-12-11T10:36:20;11.33;;;6.93;;
9056;SDS011;4563;54.756;9.400;2022-12-11T10:38:52;11.87;;;6.70;;
9056;SDS011;4563;54.756;9.400;2022-12-11T10:41:20;13.07;;;8.53;;
9056;SDS011;4563;54.756;9.400;2022-12-11T10:43:49;13.23;;;7.80;;
9056;SDS011;4563;54.756;9.400;2022-12-11T10:46:20;11.20;;;7.13;;
9056;SDS011;4563;54.756;9.400;2022-12-11T10:48:49;10.20;;;6.77;;
9056;SDS011;4563;54.756;9.400;2022-12-11T10:51:18;13.93;;;8.50;;
9056;SDS011;4563;54.756;9.400;2022-12-11T10:53:50;14.60;;;6.93;;
9056;SDS011;4563;54.756;9.400;2022-12-11T10:56:23;12.07;;;6.60;;
9056;SDS011;4563;54.756;9.400;2022-12-11T10:58:51;11.73;;;7.33;;
9056;SDS011;4563;54.756;9.400;2022-12-11T11:01:20;12.23;;;7.07;;
9056;SDS011;4563;54.756;9.400;2022-12-11T11:03:53;10.27;;;7.70;;
9056;SDS011;4563;54.756;9.400;2022-12-11T11:06:23;12.23;;;7.83;;
9056;SDS011;4563;54.756;9.400;2022-12-11T11:08:51;12.47;;;6.90;;
9056;SDS011;4563;54.756;9.400;2022-12-11T11:11:21;14.73;;;7.70;;
9056;SDS011;4563;54.756;9.400;2022-12-11T11:13:51;13.57;;;6.60;;
9056;SDS011;4563;54.756;9.400;2022-12-11T11:16:20;11.80;;;6.87;;
9056;SDS011;4563;54.756;9.400;2022-12-11T11:18:48;13.27;;;6.57;;
9056;SDS011;4563;54.756;9.400;2022-12-11T11:21:18;13.87;;;7.60;;
9056;SDS011;4563;54.756;9.400;2022-12-11T11:23:47;12.10;;;7.93;;
9056;SDS011;4563;54.756;9.400;2022-12-11T11:26:14;10.90;;;6.57;;
9056;SDS011;4563;54.756;9.400;2022-12-11T11:28:46;12.40;;;7.27;;
9056;SDS011;4563;54.756;9.400;2022-12-11T11:31:15;12.97;;;7.43;;
9056;SDS011;4563;54.756;9.400;2022-12-11T11:33:48;11.93;;;6.67;;
9056;SDS011;4563;54.756;9.400;2022-12-11T11:36:22;10.47;;;7.03;;
9056;SDS011;4563;54.756;9.400;2022-12-11T11:38:55;12.87;;;7.17;;
9056;SDS011;4563;54.756;9.400;2022-12-11T11:41:44;12.73;;;6.37;;
9056;SDS011;4563;54.756;9.400;2022-12-11T11:44:17;13.13;;;8.23;;
9056;SDS011;4563;54.756;9.400;2022-12-11T11:46:52;11.17;;;7.03;;
9056;SDS011;4563;54.756;9.400;2022-12-11T11:49:27;12.33;;;7.57;;
9056;SDS011;4563;54.756;9.400;2022-12-11T11:52:10;10.00;;;6.97;;
9056;SDS011;4563;54.756;9.400;2022-12-11T11:54:42;10.67;;;6.43;;
9056;SDS011;4563;54.756;9.400;2022-12-11T11:57:16;11.33;;;6.40;;
9056;SDS011;4563;54.756;9.400;2022-12-11T11:59:48;13.03;;;6.97;;
9056;SDS011;4563;54.756;9.400;2022-12-11T12:02:19;13.03;;;6.90;;
9056;SDS011;4563;54.756;9.400;2022-12-11T12:04:47;12.13;;;7.30;;
9056;SDS011;4563;54.756;9.400;2022-12-11T12:07:27;11.17;;;7.70;;
9056;SDS011;4563;54.756;9.400;2022-12-11T12:10:05;11.07;;;7.03;;
9056;SDS011;4563;54.756;9.400;2022-12-11T12:12:42;12.93;;;8.00;;
9056;SDS011;4563;54.756;9.400;2022-12-11T12:18:08;13.00;;;6.80;;
9056;SDS011;4563;54.756;9.400;2022-12-11T12:20:45;10.77;;;5.77;;
9056;SDS011;4563;54.756;9.400;2022-12-11T12:26:16;10.87;;;6.80;;
9056;SDS011;4563;54.756;9.400;2022-12-11T12:28:54;12.10;;;7.93;;
9056;SDS011;4563;54.756;9.400;2022-12-11T12:31:35;11.77;;;7.70;;
9056;SDS011;4563;54.756;9.400;2022-12-11T12:34:16;15.50;;;7.33;;
9056;SDS011;4563;54.756;9.400;2022-12-11T12:36:52;13.50;;;7.83;;
9056;SDS011;4563;54.756;9.400;2022-12-11T12:39:28;14.27;;;8.30;;
9056;SDS011;4563;54.756;9.400;2022-12-11T12:42:05;12.70;;;6.37;;
9056;SDS011;4563;54.756;9.400;2022-12-11T12:44:45;12.63;;;7.23;;
9056;SDS011;4563;54.756;9.400;2022-12-11T12:47:19;15.07;;;9.47;;
9056;SDS011;4563;54.756;9.400;2022-12-11T12:49:48;11.40;;;7.97;;
9056;SDS011;4563;54.756;9.400;2022-12-11T12:52:19;13.57;;;8.43;;
9056;SDS011;4563;54.756;9.400;2022-12-11T12:54:51;13.73;;;7.63;;
9056;SDS011;4563;54.756;9.400;2022-12-11T12:57:40;12.07;;;7.67;;
9056;SDS011;4563;54.756;9.400;2022-12-11T13:00:10;14.73;;;9.17;;
9056;SDS011;4563;54.756;9.400;2022-12-11T13:02:38;13.03;;;7.67;;
9056;SDS011;4563;54.756;9.400;2022-12-11T13:05:18;11.50;;;7.27;;
9056;SDS011;4563;54.756;9.400;2022-12-11T13:07:49;11.97;;;7.00;;
9056;SDS011;4563;54.756;9.400;2022-12-11T13:10:22;11.47;;;7.17;;
9056;SDS011;4563;54.756;9.400;2022-12-11T13:12:52;13.03;;;7.53;;
9056;SDS011;4563;54.756;9.400;2022-12-11T13:15:27;14.10;;;7.73;;
9056;SDS011;4563;54.756;9.400;2022-12-11T13:18:00;12.47;;;8.00;;
9056;SDS011;4563;54.756;9.400;2022-12-11T13:20:29;11.80;;;6.40;;
9056;SDS011;4563;54.756;9.400;2022-12-11T13:23:14;14.73;;;7.47;;
9056;SDS011;4563;54.756;9.400;2022-12-11T13:25:47;9.90;;;6.07;;
9056;SDS011;4563;54.756;9.400;2022-12-11T13:28:24;13.23;;;7.43;;
9056;SDS011;4563;54.756;9.400;2022-12-11T13:30:57;11.23;;;6.87;;
9056;SDS011;4563;54.756;9.400;2022-12-11T13:33:30;11.83;;;6.33;;
9056;SDS011;4563;54.756;9.400;2022-12-11T13:36:21;9.87;;;6.17;;
9056;SDS011;4563;54.756;9.400;2022-12-11T13:38:54;9.57;;;6.23;;
9056;SDS011;4563;54.756;9.400;2022-12-11T13:41:25;13.73;;;7.57;;
9056;SDS011;4563;54.756;9.400;2022-12-11T13:43:53;13.40;;;6.80;;
9056;SDS011;4563;54.756;9.400;2022-12-11T13:46:23;12.13;;;7.57;;
9056;SDS011;4563;54.756;9.400;2022-12-11T13:48:53;10.77;;;6.77;;
9056;SDS011;4563;54.756;9.400;2022-12-11T13:51:24;12.50;;;8.00;;
9056;SDS011;4563;54.756;9.400;2022-12-11T13:54:05;11.73;;;7.43;;
9056;SDS011;4563;54.756;9.400;2022-12-11T13:56:39;11.23;;;6.17;;
9056;SDS011;4563;54.756;9.400;2022-12-11T13:59:18;13.83;;;8.27;;
9056;SDS011;4563;54.756;9.400;2022-12-11T14:01:48;16.10;;;7.10;;
9056;SDS011;4563;54.756;9.400;2022-12-11T14:04:16;13.07;;;7.23;;
9056;SDS011;4563;54.756;9.400;2022-12-11T14:06:46;11.70;;;7.37;;
9056;SDS011;4563;54.756;9.400;2022-12-11T14:09:16;12.37;;;7.07;;
9056;SDS011;4563;54.756;9.400;2022-12-11T14:11:45;9.97;;;6.70;;
9056;SDS011;4563;54.756;9.400;2022-12-11T14:14:17;13.60;;;7.87;;
9056;SDS011;4563;54.756;9.400;2022-12-11T14:16:46;10.93;;;7.23;;
9056;SDS011;4563;54.756;9.400;2022-12-11T14:19:16;11.07;;;6.83;;
9056;SDS011;4563;54.756;9.400;2022-12-11T14:21:54;19.13;;;7.80;;
9056;SDS011;4563;54.756;9.400;2022-12-11T14:24:26;12.17;;;7.77;;
9056;SDS011;4563;54.756;9.400;2022-12-11T14:26:54;13.53;;;8.10;;
9056;SDS011;4563;54.756;9.400;2022-12-11T14:29:28;12.77;;;8.20;;
9056;SDS011;4563;54.756;9.400;2022-12-11T14:31:58;10.97;;;7.30;;
9056;SDS011;4563;54.756;9.400;2022-12-11T14:34:29;14.80;;;8.60;;
9056;SDS011;4563;54.756;9.400;2022-12-11T14:36:59;12.40;;;7.63;;
9056;SDS011;4563;54.756;9.400;2022-12-11T14:39:29;12.60;;;7.90;;
9056;SDS011;4563;54.756;9.400;2022-12-11T14:42:01;12.40;;;7.83;;
9056;SDS011;4563;54.756;9.400;2022-12-11T14:44:30;10.40;;;6.97;;
9056;SDS011;4563;54.756;9.400;2022-12-11T14:47:01;12.00;;;7.27;;
9056;SDS011;4563;54.756;9.400;2022-12-11T14:49:32;12.37;;;7.20;;
9056;SDS011;4563;54.756;9.400;2022-12-11T14:52:10;12.67;;;7.30;;
9056;SDS011;4563;54.756;9.400;2022-12-11T14:54:43;11.33;;;7.30;;
9056;SDS011;4563;54.756;9.400;2022-12-11T14:57:16;12.90;;;7.60;;
9056;SDS011;4563;54.756;9.400;2022-12-11T14:59:45;11.40;;;7.67;;
9056;SDS011;4563;54.756;9.400;2022-12-11T15:02:21;12.73;;;8.37;;
9056;SDS011;4563;54.756;9.400;2022-12-11T15:04:57;13.40;;;7.53;;
9056;SDS011;4563;54.756;9.400;2022-12-11T15:07:27;13.80;;;8.37;;
9056;SDS011;4563;54.756;9.400;2022-12-11T15:09:56;15.57;;;8.90;;
9056;SDS011;4563;54.756;9.400;2022-12-11T15:12:23;15.33;;;8.70;;
9056;SDS011;4563;54.756;9.400;2022-12-11T15:14:51;16.83;;;8.80;;
9056;SDS011;4563;54.756;9.400;2022-12-11T15:17:20;16.03;;;8.20;;
9056;SDS011;4563;54.756;9.400;2022-12-11T15:19:50;15.10;;;9.33;;
9056;SDS011;4563;54.756;9.400;2022-12-11T15:22:19;15.33;;;9.57;;
9056;SDS011;4563;54.756;9.400;2022-12-11T15:24:49;14.23;;;8.67;;
9056;SDS011;4563;54.756;9.400;2022-12-11T15:27:23;16.57;;;9.40;;
9056;SDS011;4563;54.756;9.400;2022-12-11T15:29:55;18.87;;;9.33;;
9056;SDS011;4563;54.756;9.400;2022-12-11T15:32:23;15.17;;;9.63;;
9056;SDS011;4563;54.756;9.400;2022-12-11T15:34:50;17.93;;;11.13;;